createdAt,value
2019-01-10T00:01:44.664Z,60.33
2019-01-10T00:04:14.085Z,64.57
2019-01-10T00:06:43.441Z,42.60
2019-01-10T00:09:12.896Z,47.40
2019-01-10T00:11:42.250Z,44.87
2019-01-10T00:14:11.599Z,54.33
2019-01-10T00:16:40.948Z,52.50
2019-01-10T00:19:10.296Z,46.53
2019-01-10T00:21:39.684Z,50.23
2019-01-10T00:24:09.016Z,61.97
2019-01-10T00:26:38.367Z,64.40
2019-01-10T00:29:07.726Z,69.47
2019-01-10T00:31:37.088Z,58.10
2019-01-10T00:34:06.434Z,58.20
2019-01-10T00:36:35.784Z,24.43
2019-01-10T00:39:07.462Z,23.47
2019-01-10T00:41:37.074Z,14.20
2019-01-10T00:44:06.469Z,12.77
2019-01-10T00:46:35.966Z,15.20
2019-01-10T00:49:05.378Z,14.63
2019-01-10T00:51:34.874Z,16.63
2019-01-10T00:54:04.338Z,14.70
2019-01-10T00:56:33.693Z,15.60
2019-01-10T00:59:03.041Z,18.70
2019-01-10T01:01:32.395Z,13.67
2019-01-10T01:04:01.856Z,17.27
2019-01-10T01:06:31.395Z,18.20
2019-01-10T01:09:00.728Z,17.67
2019-01-10T01:11:30.074Z,17.23
2019-01-10T01:13:59.420Z,18.67
2019-01-10T01:16:28.774Z,19.60
2019-01-10T01:18:58.110Z,22.70
2019-01-10T01:21:27.456Z,34.03
2019-01-10T01:23:56.796Z,24.17
2019-01-10T01:26:26.147Z,23.83
2019-01-10T01:28:55.488Z,26.80
2019-01-10T01:31:24.840Z,34.03
2019-01-10T01:33:54.176Z,24.73
2019-01-10T01:36:23.645Z,29.97
2019-01-10T01:38:53.079Z,26.60
2019-01-10T01:41:22.427Z,29.97
2019-01-10T01:43:51.838Z,30.27
2019-01-10T01:46:21.210Z,33.53
2019-01-10T01:48:50.636Z,35.27
2019-01-10T01:51:19.992Z,34.50
2019-01-10T01:53:49.330Z,32.57
2019-01-10T01:56:18.675Z,38.53
2019-01-10T01:58:48.101Z,35.67
2019-01-10T02:01:17.459Z,34.40
2019-01-10T02:03:46.910Z,34.43
2019-01-10T02:06:16.444Z,41.73
2019-01-10T02:08:45.778Z,27.87
2019-01-10T02:11:15.127Z,33.20
2019-01-10T02:13:44.479Z,33.90
2019-01-10T02:16:13.825Z,33.13
2019-01-10T02:18:43.168Z,37.50
2019-01-10T02:21:12.511Z,31.70
2019-01-10T02:23:41.852Z,30.50
2019-01-10T02:26:11.256Z,32.47
2019-01-10T02:28:40.671Z,35.07
2019-01-10T02:31:10.030Z,30.03
2019-01-10T02:33:39.398Z,29.20
2019-01-10T02:36:08.748Z,31.03
2019-01-10T02:38:38.231Z,37.73
2019-01-10T02:41:07.570Z,30.80
2019-01-10T02:43:36.919Z,39.40
2019-01-10T02:46:06.264Z,31.50
2019-01-10T02:48:35.634Z,29.70
2019-01-10T02:51:04.976Z,28.70
2019-01-10T02:53:34.327Z,28.50
2019-01-10T02:56:03.707Z,24.17
2019-01-10T02:58:33.020Z,23.43
2019-01-10T03:01:02.358Z,27.97
2019-01-10T03:03:31.695Z,24.10
2019-01-10T03:06:01.033Z,30.07
2019-01-10T03:08:30.385Z,38.93
2019-01-10T03:10:59.737Z,26.43
2019-01-10T03:13:36.500Z,28.20
2019-01-10T03:16:00.362Z,25.47
2019-01-10T03:18:29.740Z,26.23
2019-01-10T03:20:59.120Z,29.50
2019-01-10T03:23:28.789Z,38.33
2019-01-10T03:25:58.328Z,26.87
2019-01-10T03:28:27.719Z,28.93
2019-01-10T03:30:57.171Z,28.57
2019-01-10T03:33:26.775Z,31.57
2019-01-10T03:35:56.186Z,30.33
2019-01-10T03:38:25.780Z,31.17
2019-01-10T03:40:55.356Z,37.27
2019-01-10T03:43:24.896Z,41.50
2019-01-10T03:45:54.563Z,34.30
2019-01-10T03:48:23.971Z,33.97
2019-01-10T03:50:53.407Z,34.23
2019-01-10T03:53:22.897Z,30.60
2019-01-10T03:55:52.401Z,31.10
2019-01-10T03:58:21.940Z,33.30
2019-01-10T04:00:51.386Z,29.40
2019-01-10T04:03:20.944Z,31.90
2019-01-10T04:05:50.583Z,38.53
2019-01-10T04:08:20.266Z,64.30
2019-01-10T04:10:49.768Z,64.23
2019-01-10T04:13:19.219Z,44.93
2019-01-10T04:15:48.660Z,47.70
2019-01-10T04:18:18.179Z,55.40
2019-01-10T04:20:47.689Z,35.93
2019-01-10T04:23:17.105Z,39.33
2019-01-10T04:25:46.602Z,34.57
2019-01-10T04:28:16.137Z,27.90
2019-01-10T04:30:46.434Z,29.90
2019-01-10T04:33:15.975Z,25.23
2019-01-10T04:35:45.445Z,31.87
2019-01-10T04:38:14.938Z,33.37
2019-01-10T04:40:44.380Z,37.03
2019-01-10T04:43:13.942Z,34.10
2019-01-10T04:45:43.402Z,42.77
2019-01-10T04:48:13.036Z,33.40
2019-01-10T04:50:42.732Z,35.40
2019-01-10T04:53:12.267Z,38.40
2019-01-10T04:55:41.743Z,36.90
2019-01-10T04:58:11.364Z,50.23
2019-01-10T05:00:41.067Z,45.37
2019-01-10T05:03:10.525Z,48.20
2019-01-10T05:05:40.124Z,42.60
2019-01-10T05:08:09.608Z,43.30
2019-01-10T05:10:39.044Z,42.10
2019-01-10T05:13:08.546Z,45.67
2019-01-10T05:15:38.059Z,39.13
2019-01-10T05:18:08.171Z,38.33
2019-01-10T05:20:37.849Z,44.60
2019-01-10T05:23:07.388Z,52.83
2019-01-10T05:25:36.929Z,56.43
2019-01-10T05:28:06.354Z,58.73
2019-01-10T05:30:35.819Z,73.90
2019-01-10T05:33:05.321Z,64.47
2019-01-10T05:35:34.762Z,66.90
2019-01-10T05:38:04.199Z,108.30
2019-01-10T05:40:33.669Z,79.30
2019-01-10T05:43:03.115Z,64.67
2019-01-10T05:45:32.593Z,48.67
2019-01-10T05:48:02.017Z,45.40
2019-01-10T05:50:31.452Z,43.53
2019-01-10T05:53:00.924Z,52.30
2019-01-10T05:55:30.423Z,48.90
2019-01-10T05:57:59.833Z,51.83
2019-01-10T06:00:29.585Z,44.97
2019-01-10T06:02:59.697Z,40.07
2019-01-10T06:05:29.254Z,41.47
2019-01-10T06:07:58.797Z,44.20
2019-01-10T06:10:29.593Z,37.67
2019-01-10T06:12:59.467Z,41.57
2019-01-10T06:15:28.958Z,34.53
2019-01-10T06:17:58.467Z,29.43
2019-01-10T06:20:28.032Z,26.47
2019-01-10T06:22:57.609Z,35.30
2019-01-10T06:25:27.237Z,54.67
2019-01-10T06:27:56.708Z,58.63
2019-01-10T06:30:26.245Z,68.73
2019-01-10T06:32:55.928Z,59.87
2019-01-10T06:35:25.461Z,42.37
2019-01-10T06:37:54.957Z,34.20
2019-01-10T06:40:24.530Z,37.30
2019-01-10T06:42:54.057Z,30.50
2019-01-10T06:45:23.546Z,33.23
2019-01-10T06:47:53.161Z,32.13
2019-01-10T06:50:22.804Z,34.77
2019-01-10T06:52:52.249Z,32.00
2019-01-10T06:55:21.667Z,52.03
2019-01-10T06:57:51.275Z,57.07
2019-01-10T07:00:25.261Z,45.70
2019-01-10T07:02:55.288Z,47.43
2019-01-10T07:05:24.952Z,77.87
2019-01-10T07:07:56.752Z,56.17
2019-01-10T07:10:30.058Z,36.63
2019-01-10T07:12:59.654Z,37.10
2019-01-10T07:15:29.221Z,31.53
2019-01-10T07:17:58.873Z,35.57
2019-01-10T07:20:28.331Z,34.30
2019-01-10T07:22:57.902Z,31.90
2019-01-10T07:25:27.446Z,38.03
2019-01-10T07:27:57.029Z,42.30
2019-01-10T07:30:35.764Z,31.20
2019-01-10T07:32:59.056Z,25.63
2019-01-10T07:35:28.614Z,32.33
2019-01-10T07:37:58.308Z,28.60
2019-01-10T07:40:28.379Z,32.30
2019-01-10T07:42:57.981Z,30.10
2019-01-10T07:45:28.393Z,24.83
2019-01-10T07:47:57.906Z,26.07
2019-01-10T07:50:32.307Z,27.53
2019-01-10T07:53:02.112Z,25.60
2019-01-10T07:55:31.646Z,24.03
2019-01-10T07:58:01.055Z,23.97
2019-01-10T08:00:30.461Z,24.43
2019-01-10T08:03:00.004Z,24.90
2019-01-10T08:05:29.459Z,30.50
2019-01-10T08:07:58.877Z,31.90
2019-01-10T08:10:28.334Z,28.20
2019-01-10T08:12:57.823Z,27.30
2019-01-10T08:15:27.284Z,29.30
2019-01-10T08:17:56.687Z,27.33
2019-01-10T08:20:26.366Z,26.53
2019-01-10T08:22:55.774Z,26.97
2019-01-10T08:25:25.308Z,26.57
2019-01-10T08:27:54.741Z,23.83
2019-01-10T08:30:25.537Z,28.87
2019-01-10T08:32:55.056Z,33.10
2019-01-10T08:35:26.348Z,39.67
2019-01-10T08:37:55.859Z,39.40
2019-01-10T08:40:25.347Z,39.37
2019-01-10T08:42:54.852Z,31.90
2019-01-10T08:45:24.351Z,28.07
2019-01-10T08:47:53.880Z,30.00
2019-01-10T08:50:27.598Z,24.83
2019-01-10T08:52:57.175Z,41.17
2019-01-10T08:55:26.660Z,37.13
2019-01-10T08:57:56.292Z,35.40
2019-01-10T09:00:26.460Z,35.90
2019-01-10T09:02:56.232Z,39.87
2019-01-10T09:05:25.788Z,34.00
2019-01-10T09:07:55.264Z,38.23
2019-01-10T09:10:32.513Z,43.53
2019-01-10T09:13:01.935Z,42.57
2019-01-10T09:15:34.661Z,42.07
2019-01-10T09:18:02.688Z,43.07
2019-01-10T09:20:32.207Z,50.23
2019-01-10T09:23:01.649Z,44.27
2019-01-10T09:25:31.099Z,40.87
2019-01-10T09:28:00.532Z,40.90
2019-01-10T09:30:30.007Z,38.03
2019-01-10T09:32:59.504Z,47.60
2019-01-10T09:35:28.903Z,45.40
2019-01-10T09:37:58.291Z,49.23
2019-01-10T09:40:27.770Z,42.53
2019-01-10T09:42:57.200Z,46.87
2019-01-10T09:45:27.071Z,47.00
2019-01-10T09:47:56.664Z,48.33
2019-01-10T09:50:26.122Z,44.83
2019-01-10T09:52:55.601Z,43.53
2019-01-10T09:55:25.086Z,47.37
2019-01-10T09:57:54.576Z,44.70
2019-01-10T10:00:26.426Z,43.73
2019-01-10T10:02:55.944Z,44.50
2019-01-10T10:05:25.371Z,40.10
2019-01-10T10:07:54.831Z,45.80
2019-01-10T10:10:25.668Z,42.60
2019-01-10T10:12:55.116Z,43.40
2019-01-10T10:15:24.589Z,45.33
2019-01-10T10:17:53.963Z,44.43
2019-01-10T10:20:24.829Z,49.10
2019-01-10T10:22:54.478Z,47.40
2019-01-10T10:25:26.002Z,47.60
2019-01-10T10:27:55.181Z,43.00
2019-01-10T10:30:24.595Z,49.30
2019-01-10T10:32:53.983Z,38.47
2019-01-10T10:35:23.973Z,42.73
2019-01-10T10:37:53.433Z,48.40
2019-01-10T10:40:23.264Z,41.17
2019-01-10T10:42:53.303Z,45.40
2019-01-10T10:45:23.164Z,46.63
2019-01-10T10:47:52.633Z,44.83
2019-01-10T10:50:29.303Z,41.57
2019-01-10T10:52:58.813Z,47.70
2019-01-10T10:55:28.340Z,50.27
2019-01-10T10:57:57.763Z,58.93
2019-01-10T11:00:29.343Z,44.07
2019-01-10T11:02:58.771Z,47.40
2019-01-10T11:05:28.285Z,56.67
2019-01-10T11:07:57.787Z,46.73
2019-01-10T11:10:27.203Z,40.00
2019-01-10T11:12:56.589Z,54.50
2019-01-10T11:15:26.135Z,76.77
2019-01-10T11:17:55.699Z,66.37
2019-01-10T11:20:25.220Z,68.23
2019-01-10T11:22:55.141Z,68.77
2019-01-10T11:25:26.273Z,60.13
2019-01-10T11:27:56.039Z,51.17
2019-01-10T11:30:25.556Z,52.50
2019-01-10T11:32:55.164Z,45.53
2019-01-10T11:35:24.548Z,64.50
2019-01-10T11:37:53.976Z,64.30
2019-01-10T11:40:23.769Z,42.97
2019-01-10T11:42:53.263Z,39.27
2019-01-10T11:45:29.271Z,56.73
2019-01-10T11:47:58.787Z,61.10
2019-01-10T11:50:28.197Z,51.10
2019-01-10T11:52:57.592Z,58.13
2019-01-10T11:55:27.062Z,49.73
2019-01-10T11:57:56.566Z,56.83
2019-01-10T12:00:31.234Z,50.00
2019-01-10T12:03:02.262Z,41.00
2019-01-10T12:05:31.638Z,46.37
2019-01-10T12:08:01.095Z,45.17
2019-01-10T12:10:30.597Z,42.80
2019-01-10T12:13:00.066Z,34.60
2019-01-10T12:15:29.459Z,39.73
2019-01-10T12:17:58.888Z,38.83
2019-01-10T12:20:28.409Z,31.57
2019-01-10T12:22:57.963Z,35.73
2019-01-10T12:25:27.470Z,35.30
2019-01-10T12:27:56.967Z,32.70
2019-01-10T12:30:27.129Z,36.40
2019-01-10T12:32:56.661Z,37.67
2019-01-10T12:35:26.552Z,35.37
2019-01-10T12:37:56.171Z,37.50
2019-01-10T12:40:25.634Z,30.83
2019-01-10T12:42:55.189Z,27.33
2019-01-10T12:45:24.637Z,31.27
2019-01-10T12:47:54.046Z,33.20
2019-01-10T12:50:33.511Z,33.23
2019-01-10T12:53:10.059Z,34.00
2019-01-10T12:55:40.135Z,39.87
2019-01-10T12:58:09.894Z,43.53
2019-01-10T13:00:39.387Z,35.20
2019-01-10T13:03:08.793Z,39.87
2019-01-10T13:05:38.328Z,36.80
2019-01-10T13:08:07.836Z,38.70
2019-01-10T13:10:37.225Z,40.07
2019-01-10T13:13:06.858Z,41.10
2019-01-10T13:15:36.327Z,44.53
2019-01-10T13:18:05.911Z,44.83
2019-01-10T13:20:35.297Z,40.43
2019-01-10T13:23:04.831Z,49.57
2019-01-10T13:25:34.273Z,42.70
2019-01-10T13:28:03.662Z,43.37
2019-01-10T13:30:33.142Z,59.97
2019-01-10T13:33:02.579Z,77.40
2019-01-10T13:35:32.000Z,80.30
2019-01-10T13:38:01.403Z,79.07
2019-01-10T13:40:30.895Z,82.60
2019-01-10T13:43:00.271Z,74.37
2019-01-10T13:45:29.863Z,66.23
2019-01-10T13:47:59.652Z,86.80
2019-01-10T13:50:30.684Z,80.23
2019-01-10T13:53:00.253Z,106.63
2019-01-10T13:55:29.784Z,113.47
2019-01-10T13:57:59.390Z,119.20
2019-01-10T14:00:35.414Z,101.10
2019-01-10T14:03:01.968Z,97.93
2019-01-10T14:05:31.397Z,93.23
2019-01-10T14:08:00.800Z,82.23
2019-01-10T14:10:30.335Z,71.03
2019-01-10T14:12:59.920Z,79.90
2019-01-10T14:15:31.765Z,68.97
2019-01-10T14:18:01.258Z,73.40
2019-01-10T14:20:30.796Z,72.50
2019-01-10T14:23:00.186Z,67.43
2019-01-10T14:25:29.779Z,61.53
2019-01-10T14:27:59.810Z,68.10
2019-01-10T14:30:35.127Z,78.53
2019-01-10T14:33:04.799Z,78.87
2019-01-10T14:35:34.432Z,65.80
2019-01-10T14:38:04.075Z,97.07
2019-01-10T14:40:33.616Z,73.93
2019-01-10T14:43:03.177Z,65.27
2019-01-10T14:45:32.726Z,67.23
2019-01-10T14:48:02.250Z,63.20
2019-01-10T14:50:31.847Z,68.80
2019-01-10T14:53:01.295Z,72.87
2019-01-10T14:55:30.709Z,72.07
2019-01-10T14:58:00.074Z,86.03
2019-01-10T15:00:29.617Z,93.00
2019-01-10T15:02:59.154Z,128.57
2019-01-10T15:05:34.157Z,131.77
2019-01-10T15:07:59.992Z,158.60
2019-01-10T15:10:29.444Z,154.10
2019-01-10T15:12:58.991Z,163.30
2019-01-10T15:15:28.561Z,165.00
2019-01-10T15:17:58.217Z,151.83
2019-01-10T15:20:29.508Z,133.00
2019-01-10T15:22:59.008Z,147.90
2019-01-10T15:25:28.458Z,152.10
2019-01-10T15:27:57.909Z,144.03
2019-01-10T15:30:28.815Z,118.67
2019-01-10T15:32:58.398Z,115.30
2019-01-10T15:35:27.803Z,114.17
2019-01-10T15:37:57.370Z,118.63
2019-01-10T15:40:29.299Z,186.07
2019-01-10T15:42:58.737Z,255.20
2019-01-10T15:45:28.279Z,141.90
2019-01-10T15:47:57.769Z,130.47
2019-01-10T15:50:27.304Z,127.97
2019-01-10T15:52:56.773Z,165.17
2019-01-10T15:55:26.236Z,121.10
2019-01-10T15:57:55.704Z,144.57
2019-01-10T16:00:25.467Z,166.13
2019-01-10T16:02:54.945Z,164.53
2019-01-10T16:05:24.475Z,216.47
2019-01-10T16:07:53.908Z,223.93
2019-01-10T16:10:23.485Z,193.03
2019-01-10T16:12:53.053Z,163.60
2019-01-10T16:15:26.315Z,167.73
2019-01-10T16:17:55.549Z,149.63
2019-01-10T16:20:25.192Z,187.67
2019-01-10T16:22:54.661Z,171.40
2019-01-10T16:25:24.159Z,196.23
2019-01-10T16:27:53.619Z,200.83
2019-01-10T16:30:25.465Z,203.13
2019-01-10T16:32:55.046Z,176.73
2019-01-10T16:35:24.690Z,145.77
2019-01-10T16:37:54.196Z,167.57
2019-01-10T16:40:23.727Z,139.40
2019-01-10T16:42:53.264Z,180.27
2019-01-10T16:45:24.788Z,236.30
2019-01-10T16:47:54.271Z,179.57
2019-01-10T16:50:23.862Z,192.43
2019-01-10T16:52:53.955Z,179.80
2019-01-10T16:55:23.418Z,145.00
2019-01-10T16:57:52.978Z,127.70
2019-01-10T17:00:30.473Z,133.30
2019-01-10T17:04:00.132Z,125.07
2019-01-10T17:07:17.436Z,113.83
2019-01-10T17:09:46.996Z,98.37
2019-01-10T17:12:16.507Z,89.70
2019-01-10T17:14:46.069Z,101.37
2019-01-10T17:17:15.638Z,98.87
2019-01-10T17:19:45.173Z,93.70
2019-01-10T17:22:14.573Z,94.67
2019-01-10T17:24:44.153Z,113.20
2019-01-10T17:27:13.532Z,107.73
2019-01-10T17:29:42.945Z,117.43
2019-01-10T17:32:12.442Z,104.00
2019-01-10T17:34:41.961Z,102.77
2019-01-10T17:37:11.521Z,129.77
2019-01-10T17:39:40.965Z,121.80
2019-01-10T17:42:10.474Z,145.80
2019-01-10T17:44:39.908Z,122.63
2019-01-10T17:47:09.623Z,134.97
2019-01-10T17:49:39.210Z,142.50
2019-01-10T17:52:08.730Z,162.33
2019-01-10T17:54:38.504Z,150.57
2019-01-10T17:57:08.073Z,158.00
2019-01-10T17:59:37.566Z,147.30
2019-01-10T18:02:07.156Z,156.27
2019-01-10T18:04:36.810Z,218.20
2019-01-10T18:07:06.205Z,261.57
2019-01-10T18:09:35.738Z,201.10
2019-01-10T18:13:00.630Z,276.43
2019-01-10T18:16:18.784Z,208.33
2019-01-10T18:19:41.115Z,148.07
2019-01-10T18:22:21.058Z,167.27
2019-01-10T18:25:56.216Z,200.50
2019-01-10T18:28:25.716Z,129.93
2019-01-10T18:31:37.271Z,118.63
2019-01-10T18:34:06.861Z,102.30
2019-01-10T18:37:35.782Z,125.80
2019-01-10T18:41:05.556Z,110.97
2019-01-10T18:43:58.893Z,133.60
2019-01-10T18:47:36.094Z,113.77
2019-01-10T18:50:07.326Z,130.30
2019-01-10T18:53:54.977Z,154.67
2019-01-10T18:56:30.202Z,138.37
2019-01-10T19:00:00.758Z,130.77
2019-01-10T19:02:50.951Z,129.00
2019-01-10T19:05:57.319Z,152.13
2019-01-10T19:09:09.729Z,191.93
2019-01-10T19:11:39.342Z,155.20
2019-01-10T19:14:08.855Z,172.47
2019-01-10T19:16:38.278Z,147.27
2019-01-10T19:19:07.894Z,138.70
2019-01-10T19:21:37.506Z,160.47
2019-01-10T19:24:06.959Z,138.23
2019-01-10T19:26:36.443Z,157.33
2019-01-10T19:29:05.938Z,158.93
2019-01-10T19:31:35.493Z,142.43
2019-01-10T19:34:04.957Z,142.87
2019-01-10T19:36:34.617Z,137.13
2019-01-10T19:39:05.661Z,147.87
2019-01-10T19:41:35.163Z,122.63
2019-01-10T19:44:04.689Z,126.43
2019-01-10T19:46:34.387Z,110.43
2019-01-10T19:49:04.142Z,109.60
2019-01-10T19:51:33.646Z,113.77
2019-01-10T19:54:03.171Z,105.97
2019-01-10T19:56:32.602Z,102.47
2019-01-10T19:59:02.056Z,84.50
2019-01-10T20:01:31.681Z,103.00
2019-01-10T20:04:01.058Z,80.03
2019-01-10T20:06:32.684Z,98.00
2019-01-10T20:09:02.242Z,81.97
2019-01-10T20:11:31.887Z,76.13
2019-01-10T20:14:01.431Z,70.93
2019-01-10T20:16:31.115Z,64.30
2019-01-10T20:19:00.636Z,70.10
2019-01-10T20:21:30.156Z,80.27
2019-01-10T20:23:59.687Z,60.20
2019-01-10T20:26:29.271Z,78.97
2019-01-10T20:28:58.836Z,106.47
2019-01-10T20:31:28.778Z,126.90
2019-01-10T20:34:00.154Z,72.70
2019-01-10T20:36:29.643Z,92.87
2019-01-10T20:38:59.145Z,94.13
2019-01-10T20:41:31.755Z,172.17
2019-01-10T20:44:01.240Z,85.23
2019-01-10T20:46:30.838Z,280.07
2019-01-10T20:49:01.521Z,77.57
2019-01-10T20:51:31.118Z,93.90
2019-01-10T20:54:00.629Z,149.87
2019-01-10T20:56:30.269Z,437.33
2019-01-10T20:58:59.695Z,187.67
2019-01-10T21:01:29.422Z,145.50
2019-01-10T21:04:02.045Z,117.90
2019-01-10T21:06:31.672Z,99.90
2019-01-10T21:09:01.240Z,104.43
2019-01-10T21:11:30.850Z,129.00
2019-01-10T21:14:00.481Z,105.07
2019-01-10T21:16:29.998Z,150.30
2019-01-10T21:18:59.796Z,220.10
2019-01-10T21:21:32.287Z,70.17
2019-01-10T21:24:01.857Z,63.27
2019-01-10T21:26:31.349Z,64.63
2019-01-10T21:29:00.850Z,44.97
2019-01-10T21:31:30.562Z,66.60
2019-01-10T21:34:00.207Z,176.70
2019-01-10T21:36:29.890Z,75.00
2019-01-10T21:38:59.378Z,58.03
2019-01-10T21:41:31.699Z,164.93
2019-01-10T21:44:01.379Z,117.17
2019-01-10T21:46:30.990Z,169.80
2019-01-10T21:49:00.448Z,61.37
2019-01-10T21:51:32.820Z,59.70
2019-01-10T21:54:02.679Z,74.67
2019-01-10T21:56:32.208Z,48.93
2019-01-10T21:59:01.880Z,41.77
2019-01-10T22:01:31.529Z,38.90
2019-01-10T22:04:01.209Z,39.37
2019-01-10T22:06:30.637Z,42.77
2019-01-10T22:09:00.230Z,38.60
2019-01-10T22:11:29.728Z,39.60
2019-01-10T22:13:59.288Z,33.47
2019-01-10T22:16:29.186Z,44.60
2019-01-10T22:18:58.914Z,124.90
2019-01-10T22:21:28.396Z,65.90
2019-01-10T22:23:58.174Z,72.73
2019-01-10T22:26:27.782Z,55.67
2019-01-10T22:28:57.205Z,109.37
2019-01-10T22:31:26.661Z,91.80
2019-01-10T22:33:56.202Z,68.00
2019-01-10T22:36:25.633Z,81.43
2019-01-10T22:38:55.152Z,61.47
2019-01-10T22:41:24.717Z,73.40
2019-01-10T22:43:54.175Z,169.23
2019-01-10T22:46:23.693Z,120.37
2019-01-10T22:48:53.185Z,88.80
2019-01-10T22:51:22.720Z,160.80
2019-01-10T22:53:52.782Z,109.40
2019-01-10T22:56:22.363Z,70.33
2019-01-10T22:58:51.803Z,60.77
2019-01-10T23:01:45.962Z,64.97
2019-01-10T23:04:19.355Z,106.80
2019-01-10T23:06:49.054Z,141.10
2019-01-10T23:09:18.584Z,74.80
2019-01-10T23:11:48.161Z,57.80
2019-01-10T23:14:17.784Z,61.20
2019-01-10T23:16:47.248Z,68.27
2019-01-10T23:19:16.775Z,53.67
2019-01-10T23:21:46.382Z,53.93
2019-01-10T23:24:26.624Z,60.90
2019-01-10T23:26:55.149Z,70.30
2019-01-10T23:29:32.090Z,57.57
2019-01-10T23:32:06.418Z,56.43
2019-01-10T23:34:35.963Z,49.47
2019-01-10T23:37:05.468Z,48.63
2019-01-10T23:39:34.868Z,47.23
2019-01-10T23:42:04.301Z,35.57
2019-01-10T23:44:33.986Z,42.77
2019-01-10T23:47:03.656Z,43.00
2019-01-10T23:49:33.107Z,46.20
2019-01-10T23:52:02.565Z,38.90
2019-01-10T23:54:32.024Z,42.03
2019-01-10T23:57:01.471Z,41.17
2019-01-10T23:59:31.064Z,42.70
